createdAt,value
2019-04-28T00:01:34.191Z,27.73
2019-04-28T00:04:03.493Z,24.83
2019-04-28T00:06:32.196Z,25.33
2019-04-28T00:09:01.733Z,28.80
2019-04-28T00:11:31.712Z,36.40
2019-04-28T00:14:01.863Z,24.93
2019-04-28T00:16:31.114Z,24.50
2019-04-28T00:19:01.104Z,22.00
2019-04-28T00:21:34.679Z,29.77
2019-04-28T00:24:05.015Z,22.23
2019-04-28T00:26:44.932Z,25.10
2019-04-28T00:29:13.628Z,25.10
2019-04-28T00:31:42.404Z,25.50
2019-04-28T00:34:11.564Z,31.43
2019-04-28T00:36:42.929Z,24.93
2019-04-28T00:39:11.820Z,31.57
2019-04-28T00:41:42.022Z,22.90
2019-04-28T00:44:11.947Z,24.57
2019-04-28T00:46:41.897Z,24.77
2019-04-28T00:49:11.833Z,23.03
2019-04-28T00:51:41.438Z,24.60
2019-04-28T00:54:12.065Z,29.93
2019-04-28T00:56:41.855Z,29.47
2019-04-28T00:59:11.802Z,30.30
2019-04-28T01:01:51.379Z,27.80
2019-04-28T01:04:21.949Z,26.10
2019-04-28T01:06:51.977Z,25.27
2019-04-28T01:09:21.751Z,24.27
2019-04-28T01:11:51.456Z,27.10
2019-04-28T01:14:21.444Z,24.17
2019-04-28T01:16:54.569Z,24.33
2019-04-28T01:19:24.910Z,27.47
2019-04-28T01:22:10.422Z,24.53
2019-04-28T01:24:40.328Z,24.83
2019-04-28T01:27:10.955Z,24.20
2019-04-28T01:29:40.269Z,24.00
2019-04-28T01:32:13.467Z,28.90
2019-04-28T01:34:42.171Z,27.70
2019-04-28T01:37:11.038Z,28.70
2019-04-28T01:39:41.239Z,28.63
2019-04-28T01:42:10.634Z,26.90
2019-04-28T01:44:39.670Z,26.33
2019-04-28T01:47:08.348Z,23.37
2019-04-28T01:49:37.151Z,25.07
2019-04-28T01:52:05.851Z,28.60
2019-04-28T01:54:34.550Z,29.73
2019-04-28T01:57:03.261Z,23.63
2019-04-28T01:59:31.963Z,25.83
2019-04-28T02:02:00.728Z,21.87
2019-04-28T02:04:30.048Z,23.07
2019-04-28T02:07:00.034Z,24.47
2019-04-28T02:09:29.653Z,19.80
2019-04-28T02:12:00.628Z,26.13
2019-04-28T02:14:30.643Z,21.40
2019-04-28T02:17:00.485Z,22.63
2019-04-28T02:19:30.596Z,22.70
2019-04-28T02:22:20.513Z,28.37
2019-04-28T02:24:50.507Z,18.73
2019-04-28T02:27:20.383Z,23.80
2019-04-28T02:29:49.894Z,26.13
2019-04-28T02:32:23.755Z,28.33
2019-04-28T02:34:50.630Z,27.73
2019-04-28T02:37:20.583Z,27.93
2019-04-28T02:39:50.511Z,27.57
2019-04-28T02:42:20.913Z,24.00
2019-04-28T02:44:51.465Z,26.00
2019-04-28T02:47:22.011Z,23.90
2019-04-28T02:49:52.232Z,26.27
2019-04-28T02:52:22.591Z,22.50
2019-04-28T02:54:51.271Z,22.13
2019-04-28T02:57:20.889Z,25.83
2019-04-28T02:59:50.972Z,29.13
2019-04-28T03:02:20.842Z,24.90
2019-04-28T03:04:50.611Z,23.20
2019-04-28T03:07:21.704Z,21.70
2019-04-28T03:09:52.003Z,23.87
2019-04-28T03:12:21.512Z,33.07
2019-04-28T03:14:50.716Z,21.27
2019-04-28T03:17:20.791Z,20.37
2019-04-28T03:19:51.669Z,23.13
2019-04-28T03:22:20.647Z,26.33
2019-04-28T03:24:51.263Z,23.47
2019-04-28T03:27:21.629Z,26.03
2019-04-28T03:30:00.508Z,26.93
2019-04-28T03:32:45.355Z,21.87
2019-04-28T03:35:06.434Z,30.77
2019-04-28T03:37:35.120Z,26.70
2019-04-28T03:40:05.116Z,27.87
2019-04-28T03:42:33.827Z,26.80
2019-04-28T03:45:04.161Z,23.73
2019-04-28T03:47:32.862Z,24.37
2019-04-28T03:50:01.557Z,20.13
2019-04-28T03:52:31.791Z,23.73
2019-04-28T03:55:00.798Z,24.57
2019-04-28T03:57:31.335Z,20.83
2019-04-28T04:00:01.574Z,23.00
2019-04-28T04:02:31.176Z,22.63
2019-04-28T04:05:03.329Z,22.73
2019-04-28T04:07:31.276Z,21.20
2019-04-28T04:10:01.691Z,24.13
2019-04-28T04:12:57.289Z,20.87
2019-04-28T04:15:43.585Z,20.57
2019-04-28T04:18:13.928Z,23.03
2019-04-28T04:20:42.624Z,23.33
2019-04-28T04:23:11.604Z,19.00
2019-04-28T04:25:41.684Z,20.50
2019-04-28T04:28:10.814Z,17.20
2019-04-28T04:30:40.843Z,18.30
2019-04-28T04:33:11.044Z,19.40
2019-04-28T04:35:41.161Z,21.43
2019-04-28T04:38:10.639Z,20.47
2019-04-28T04:40:41.319Z,18.40
2019-04-28T04:43:11.216Z,19.93
2019-04-28T04:45:40.683Z,18.43
2019-04-28T04:48:11.641Z,18.07
2019-04-28T04:50:41.223Z,16.87
2019-04-28T04:53:11.041Z,16.63
2019-04-28T04:55:40.747Z,17.87
2019-04-28T04:58:10.744Z,20.10
2019-04-28T05:00:43.943Z,18.53
2019-04-28T05:03:17.172Z,17.03
2019-04-28T05:05:45.935Z,18.83
2019-04-28T05:08:15.590Z,14.80
2019-04-28T05:10:44.445Z,17.63
2019-04-28T05:13:13.075Z,18.05
2019-04-28T05:15:41.776Z,17.87
2019-04-28T05:18:10.479Z,16.13
2019-04-28T05:20:40.324Z,15.30
2019-04-28T05:23:10.906Z,18.35
2019-04-28T05:25:41.235Z,15.45
2019-04-28T05:28:10.410Z,17.02
2019-04-28T05:30:42.860Z,20.23
2019-04-28T05:33:11.407Z,18.80
2019-04-28T05:35:40.111Z,20.43
2019-04-28T05:38:09.976Z,20.85
2019-04-28T05:40:39.916Z,17.48
2019-04-28T05:43:10.587Z,15.93
2019-04-28T05:45:39.721Z,16.12
2019-04-28T05:48:09.546Z,18.05
2019-04-28T05:50:40.591Z,16.30
2019-04-28T05:53:11.004Z,17.23
2019-04-28T05:55:47.093Z,18.15
2019-04-28T05:58:17.448Z,18.15
2019-04-28T06:01:00.357Z,17.80
2019-04-28T06:03:30.835Z,16.57
2019-04-28T06:06:00.060Z,19.05
2019-04-28T06:08:30.392Z,14.93
2019-04-28T06:10:59.885Z,17.77
2019-04-28T06:13:30.272Z,14.63
2019-04-28T06:15:59.862Z,16.77
2019-04-28T06:18:30.645Z,16.37
2019-04-28T06:20:59.068Z,15.58
2019-04-28T06:23:27.779Z,14.65
2019-04-28T06:25:56.477Z,16.57
2019-04-28T06:28:25.235Z,13.60
2019-04-28T06:30:53.998Z,13.72
2019-04-28T06:33:22.643Z,14.33
2019-04-28T06:35:51.519Z,17.37
2019-04-28T06:38:20.216Z,14.23
2019-04-28T06:40:48.929Z,14.87
2019-04-28T06:43:17.635Z,16.00
2019-04-28T06:45:46.355Z,15.15
2019-04-28T06:48:15.055Z,14.33
2019-04-28T06:50:43.775Z,13.93
2019-04-28T06:53:12.479Z,13.78
2019-04-28T06:55:41.115Z,17.67
2019-04-28T06:58:09.739Z,12.78
2019-04-28T07:00:38.454Z,14.80
2019-04-28T07:03:09.353Z,12.95
2019-04-28T07:05:37.439Z,15.75
2019-04-28T07:08:06.144Z,13.50
2019-04-28T07:10:34.839Z,13.85
2019-04-28T07:13:03.547Z,12.47
2019-04-28T07:15:32.347Z,16.50
2019-04-28T07:18:01.055Z,15.85
2019-04-28T07:20:46.632Z,13.18
2019-04-28T07:23:15.336Z,14.07
2019-04-28T07:25:44.039Z,17.65
2019-04-28T07:28:12.987Z,16.42
2019-04-28T07:30:41.854Z,10.70
2019-04-28T07:33:10.844Z,11.90
2019-04-28T07:35:39.551Z,14.73
2019-04-28T07:38:08.252Z,14.23
2019-04-28T07:40:36.963Z,12.25
2019-04-28T07:43:05.663Z,13.78
2019-04-28T07:45:34.499Z,12.78
2019-04-28T07:48:03.202Z,11.45
2019-04-28T07:50:31.900Z,16.02
2019-04-28T07:53:05.296Z,14.38
2019-04-28T07:55:33.991Z,12.90
2019-04-28T07:58:02.906Z,16.67
2019-04-28T08:00:32.279Z,13.53
2019-04-28T08:03:00.904Z,15.38
2019-04-28T08:05:29.611Z,15.10
2019-04-28T08:07:58.317Z,10.30
2019-04-28T08:10:27.060Z,11.45
2019-04-28T08:12:55.767Z,13.48
2019-04-28T08:15:24.479Z,12.58
2019-04-28T08:17:53.187Z,13.38
2019-04-28T08:20:21.894Z,11.83
2019-04-28T08:22:50.610Z,12.03
2019-04-28T08:25:19.313Z,12.43
2019-04-28T08:27:48.027Z,19.12
2019-04-28T08:30:16.795Z,12.73
2019-04-28T08:32:47.149Z,11.78
2019-04-28T08:35:15.874Z,21.37
2019-04-28T08:37:44.569Z,14.38
2019-04-28T08:40:13.273Z,13.38
2019-04-28T08:42:41.971Z,12.40
2019-04-28T08:45:10.990Z,14.68
2019-04-28T08:47:39.641Z,16.95
2019-04-28T08:50:08.752Z,11.95
2019-04-28T08:52:37.467Z,16.05
2019-04-28T08:55:07.160Z,16.95
2019-04-28T08:57:35.869Z,15.18
2019-04-28T09:00:10.355Z,12.15
2019-04-28T09:02:39.059Z,14.58
2019-04-28T09:05:07.863Z,15.20
2019-04-28T09:07:36.571Z,14.68
2019-04-28T09:10:07.063Z,14.40
2019-04-28T09:12:35.771Z,17.00
2019-04-28T09:15:06.905Z,14.43
2019-04-28T09:17:35.605Z,21.55
2019-04-28T09:20:08.340Z,12.28
2019-04-28T09:22:37.055Z,12.45
2019-04-28T09:25:07.319Z,13.95
2019-04-28T09:27:36.043Z,16.90
2019-04-28T09:30:06.505Z,17.07
2019-04-28T09:32:35.212Z,15.20
2019-04-28T09:35:06.032Z,16.27
2019-04-28T09:37:34.823Z,18.67
2019-04-28T09:40:10.944Z,14.18
2019-04-28T09:42:50.487Z,12.25
2019-04-28T09:45:26.856Z,15.70
2019-04-28T09:47:55.551Z,20.23
2019-04-28T09:50:25.172Z,13.28
2019-04-28T09:52:54.217Z,14.15
2019-04-28T09:55:22.940Z,18.12
2019-04-28T09:57:51.636Z,19.95
2019-04-28T10:00:20.764Z,15.68
2019-04-28T10:02:51.563Z,12.60
2019-04-28T10:05:20.280Z,10.98
2019-04-28T10:07:48.993Z,16.48
2019-04-28T10:10:17.946Z,11.35
2019-04-28T10:12:46.639Z,14.93
2019-04-28T10:15:15.737Z,16.90
2019-04-28T10:17:44.447Z,13.95
2019-04-28T10:20:13.448Z,15.03
2019-04-28T10:22:42.193Z,13.68
2019-04-28T10:25:10.906Z,13.30
2019-04-28T10:27:39.684Z,13.30
2019-04-28T10:30:09.982Z,18.82
2019-04-28T10:32:38.723Z,13.10
2019-04-28T10:35:08.233Z,14.75
2019-04-28T10:37:37.007Z,21.45
2019-04-28T10:40:14.890Z,14.45
2019-04-28T10:42:43.595Z,19.82
2019-04-28T10:45:14.912Z,14.80
2019-04-28T10:47:43.630Z,15.40
2019-04-28T10:50:12.731Z,13.25
2019-04-28T10:52:41.513Z,13.70
2019-04-28T10:55:10.535Z,15.20
2019-04-28T10:57:39.766Z,11.90
2019-04-28T11:00:09.247Z,16.73
2019-04-28T11:02:39.587Z,11.88
2019-04-28T11:05:09.947Z,14.50
2019-04-28T11:07:38.647Z,16.85
2019-04-28T11:10:16.168Z,24.10
2019-04-28T11:12:44.881Z,17.30
2019-04-28T11:15:25.349Z,18.30
2019-04-28T11:17:54.120Z,22.22
2019-04-28T11:20:25.170Z,15.63
2019-04-28T11:22:53.331Z,18.65
2019-04-28T11:25:22.063Z,18.07
2019-04-28T11:27:50.864Z,13.40
2019-04-28T11:30:20.343Z,13.88
2019-04-28T11:32:50.699Z,14.07
2019-04-28T11:35:33.024Z,12.13
2019-04-28T11:38:01.735Z,18.07
2019-04-28T11:40:30.435Z,14.33
2019-04-28T11:42:59.215Z,15.25
2019-04-28T11:45:27.983Z,14.23
2019-04-28T11:47:56.700Z,14.80
2019-04-28T11:50:25.392Z,12.25
2019-04-28T11:52:54.139Z,14.43
2019-04-28T11:55:22.847Z,17.05
2019-04-28T11:57:51.548Z,15.28
2019-04-28T12:00:24.699Z,13.90
2019-04-28T12:02:53.395Z,19.73
2019-04-28T12:05:34.027Z,14.93
2019-04-28T12:07:54.163Z,19.40
2019-04-28T12:10:26.959Z,15.55
2019-04-28T12:13:06.335Z,14.15
2019-04-28T12:15:42.364Z,18.00
2019-04-28T12:18:24.947Z,17.87
2019-04-28T12:20:53.646Z,19.12
2019-04-28T12:23:22.356Z,14.47
2019-04-28T12:25:51.056Z,15.13
2019-04-28T12:28:19.764Z,20.08
2019-04-28T12:30:48.472Z,13.13
2019-04-28T12:33:17.175Z,22.00
2019-04-28T12:35:47.942Z,15.55
2019-04-28T12:38:16.255Z,16.32
2019-04-28T12:40:46.073Z,22.15
2019-04-28T12:43:14.783Z,13.72
2019-04-28T12:45:43.486Z,12.90
2019-04-28T12:48:12.304Z,16.57
2019-04-28T12:50:48.218Z,11.33
2019-04-28T12:53:16.924Z,15.25
2019-04-28T12:55:45.623Z,12.95
2019-04-28T12:58:14.326Z,15.30
2019-04-28T13:01:01.003Z,15.58
2019-04-28T13:03:31.346Z,14.70
2019-04-28T13:06:05.623Z,13.35
2019-04-28T13:08:32.152Z,15.08
2019-04-28T13:11:00.856Z,14.68
2019-04-28T13:13:29.572Z,20.72
2019-04-28T13:15:58.270Z,15.78
2019-04-28T13:18:26.990Z,20.50
2019-04-28T13:20:55.688Z,13.48
2019-04-28T13:23:24.496Z,11.78
2019-04-28T13:25:53.170Z,13.32
2019-04-28T13:28:21.895Z,11.93
2019-04-28T13:30:50.611Z,12.43
2019-04-28T13:33:19.317Z,15.75
2019-04-28T13:35:48.118Z,14.85
2019-04-28T13:38:16.811Z,14.40
2019-04-28T13:40:45.521Z,11.33
2019-04-28T13:43:14.233Z,14.05
2019-04-28T13:45:43.002Z,15.53
2019-04-28T13:48:11.724Z,15.68
2019-04-28T13:50:40.429Z,19.98
2019-04-28T13:53:09.604Z,15.18
2019-04-28T13:55:49.158Z,13.85
2019-04-28T13:58:19.479Z,12.75
2019-04-28T14:00:49.831Z,17.65
2019-04-28T14:03:36.483Z,14.00
2019-04-28T14:06:09.307Z,16.97
2019-04-28T14:08:37.981Z,18.90
2019-04-28T14:11:07.183Z,22.55
2019-04-28T14:13:35.891Z,17.30
2019-04-28T14:16:04.820Z,19.48
2019-04-28T14:18:33.572Z,28.65
2019-04-28T14:21:02.240Z,15.85
2019-04-28T14:23:30.955Z,18.92
2019-04-28T14:25:59.642Z,13.65
2019-04-28T14:28:28.351Z,18.20
2019-04-28T14:30:57.175Z,15.13
2019-04-28T14:33:25.875Z,13.90
2019-04-28T14:35:54.670Z,17.02
2019-04-28T14:38:23.412Z,13.13
2019-04-28T14:40:52.067Z,15.15
2019-04-28T14:43:20.768Z,22.02
2019-04-28T14:45:49.474Z,14.47
2019-04-28T14:48:18.185Z,18.32
2019-04-28T14:50:46.891Z,13.48
2019-04-28T14:53:15.587Z,15.23
2019-04-28T14:55:44.322Z,13.22
2019-04-28T14:58:12.993Z,20.17
2019-04-28T15:00:43.364Z,18.67
2019-04-28T15:03:16.304Z,16.97
2019-04-28T15:06:01.683Z,16.20
2019-04-28T15:08:48.443Z,21.23
2019-04-28T15:11:18.791Z,16.70
2019-04-28T15:13:47.491Z,21.42
2019-04-28T15:16:16.196Z,17.05
2019-04-28T15:18:44.895Z,14.87
2019-04-28T15:21:32.874Z,15.58
2019-04-28T15:24:01.570Z,16.48
2019-04-28T15:26:30.277Z,12.73
2019-04-28T15:28:58.975Z,12.05
2019-04-28T15:31:27.754Z,18.98
2019-04-28T15:33:56.455Z,17.30
2019-04-28T15:36:25.641Z,15.20
2019-04-28T15:38:54.339Z,19.30
2019-04-28T15:41:23.039Z,13.58
2019-04-28T15:43:51.744Z,16.07
2019-04-28T15:46:20.450Z,13.72
2019-04-28T15:48:49.191Z,19.40
2019-04-28T15:51:17.997Z,11.03
2019-04-28T15:53:48.455Z,23.43
2019-04-28T15:56:21.963Z,15.70
2019-04-28T15:58:50.659Z,21.12
2019-04-28T16:01:19.375Z,16.15
2019-04-28T16:03:48.085Z,12.05
2019-04-28T16:06:16.786Z,16.80
2019-04-28T16:08:45.479Z,16.17
2019-04-28T16:11:14.186Z,14.20
2019-04-28T16:13:42.883Z,13.10
2019-04-28T16:16:11.661Z,16.05
2019-04-28T16:18:40.372Z,14.57
2019-04-28T16:21:09.081Z,13.20
2019-04-28T16:23:37.779Z,16.10
2019-04-28T16:26:06.491Z,11.90
2019-04-28T16:28:35.195Z,14.60
2019-04-28T16:31:03.911Z,13.38
2019-04-28T16:33:32.527Z,14.40
2019-04-28T16:36:01.237Z,13.83
2019-04-28T16:38:29.944Z,14.07
2019-04-28T16:41:08.425Z,15.60
2019-04-28T16:43:39.062Z,13.28
2019-04-28T16:46:07.768Z,13.20
2019-04-28T16:48:36.471Z,16.63
2019-04-28T16:51:05.279Z,14.65
2019-04-28T16:53:33.986Z,14.10
2019-04-28T16:56:07.029Z,17.37
2019-04-28T16:58:53.625Z,18.93
2019-04-28T17:01:39.118Z,13.77
2019-04-28T17:04:07.819Z,15.63
2019-04-28T17:06:36.515Z,13.43
2019-04-28T17:09:07.451Z,12.10
2019-04-28T17:11:36.172Z,13.40
2019-04-28T17:14:05.055Z,20.13
2019-04-28T17:16:33.784Z,13.75
2019-04-28T17:19:02.507Z,12.63
2019-04-28T17:21:31.515Z,12.87
2019-04-28T17:24:00.221Z,14.13
2019-04-28T17:26:28.987Z,12.07
2019-04-28T17:28:57.695Z,17.03
2019-04-28T17:31:26.392Z,26.85
2019-04-28T17:33:55.103Z,17.13
2019-04-28T17:36:23.978Z,15.93
2019-04-28T17:38:52.675Z,11.37
2019-04-28T17:41:21.552Z,12.60
2019-04-28T17:43:50.254Z,16.07
2019-04-28T17:46:19.161Z,12.70
2019-04-28T17:49:00.951Z,13.50
2019-04-28T17:51:29.827Z,15.73
2019-04-28T17:53:58.524Z,13.23
2019-04-28T17:56:27.287Z,15.33
2019-04-28T17:58:55.999Z,10.67
2019-04-28T18:01:26.342Z,15.77
2019-04-28T18:03:59.832Z,12.50
2019-04-28T18:06:30.163Z,12.17
2019-04-28T18:08:58.871Z,17.93
2019-04-28T18:11:27.607Z,11.53
2019-04-28T18:13:56.313Z,15.47
2019-04-28T18:16:38.579Z,16.30
2019-04-28T18:19:11.635Z,15.57
2019-04-28T18:21:40.327Z,14.03
2019-04-28T18:24:09.220Z,32.53
2019-04-28T18:26:37.919Z,14.07
2019-04-28T18:29:07.012Z,13.93
2019-04-28T18:31:37.360Z,16.10
2019-04-28T18:34:24.480Z,15.20
2019-04-28T18:37:11.328Z,11.43
2019-04-28T18:39:58.303Z,11.27
2019-04-28T18:42:31.576Z,9.23
2019-04-28T18:45:00.280Z,10.93
2019-04-28T18:47:28.988Z,14.73
2019-04-28T18:49:57.702Z,12.27
2019-04-28T18:52:26.394Z,13.10
2019-04-28T18:54:55.107Z,12.77
2019-04-28T18:57:23.803Z,10.00
2019-04-28T18:59:52.587Z,19.67
2019-04-28T19:02:22.924Z,13.43
2019-04-28T19:04:51.624Z,15.17
2019-04-28T19:07:21.962Z,13.03
2019-04-28T19:09:54.975Z,15.07
2019-04-28T19:12:31.523Z,15.00
2019-04-28T19:15:01.932Z,12.07
2019-04-28T19:17:43.979Z,8.93
2019-04-28T19:20:13.787Z,18.90
2019-04-28T19:22:48.431Z,15.40
2019-04-28T19:25:17.123Z,16.50
2019-04-28T19:27:45.828Z,16.67
2019-04-28T19:30:14.787Z,20.40
2019-04-28T19:32:43.547Z,11.07
2019-04-28T19:35:12.643Z,13.60
2019-04-28T19:37:41.334Z,13.43
2019-04-28T19:40:10.235Z,13.87
2019-04-28T19:42:38.927Z,14.17
2019-04-28T19:45:11.989Z,13.00
2019-04-28T19:47:40.144Z,14.77
2019-04-28T19:50:08.951Z,13.93
2019-04-28T19:52:40.934Z,17.17
2019-04-28T19:55:12.767Z,11.73
2019-04-28T19:57:46.013Z,13.03
2019-04-28T20:00:35.371Z,11.93
2019-04-28T20:03:04.168Z,13.60
2019-04-28T20:05:32.863Z,12.20
2019-04-28T20:08:01.568Z,11.87
2019-04-28T20:10:30.255Z,9.43
2019-04-28T20:12:58.961Z,14.67
2019-04-28T20:15:27.656Z,11.17
2019-04-28T20:17:56.395Z,10.87
2019-04-28T20:20:25.103Z,11.97
2019-04-28T20:22:53.790Z,10.20
2019-04-28T20:25:22.682Z,11.73
2019-04-28T20:27:51.375Z,19.33
2019-04-28T20:30:20.067Z,9.57
2019-04-28T20:32:48.859Z,13.90
2019-04-28T20:35:19.199Z,12.33
2019-04-28T20:38:04.965Z,8.07
2019-04-28T20:40:35.300Z,9.90
2019-04-28T20:43:11.657Z,10.47
2019-04-28T20:45:40.419Z,8.10
2019-04-28T20:48:09.123Z,9.40
2019-04-28T20:50:37.991Z,9.10
2019-04-28T20:53:26.071Z,8.00
2019-04-28T20:55:54.847Z,8.60
2019-04-28T20:58:23.470Z,10.40
2019-04-28T21:00:52.235Z,10.60
2019-04-28T21:03:20.927Z,7.77
2019-04-28T21:05:49.632Z,8.00
2019-04-28T21:08:18.331Z,16.23
2019-04-28T21:10:47.090Z,7.77
2019-04-28T21:13:15.711Z,12.27
2019-04-28T21:15:44.399Z,6.40
2019-04-28T21:18:13.111Z,8.70
2019-04-28T21:20:41.802Z,9.10
2019-04-28T21:23:10.495Z,10.17
2019-04-28T21:25:39.195Z,7.03
2019-04-28T21:28:07.887Z,9.17
2019-04-28T21:30:36.590Z,9.30
2019-04-28T21:33:05.279Z,7.97
2019-04-28T21:35:33.974Z,7.17
2019-04-28T21:38:02.679Z,10.47
2019-04-28T21:40:31.548Z,6.10
2019-04-28T21:43:04.547Z,10.50
2019-04-28T21:45:50.564Z,7.07
2019-04-28T21:48:32.786Z,8.67
2019-04-28T21:51:01.476Z,7.90
2019-04-28T21:53:30.167Z,9.23
2019-04-28T21:55:58.922Z,8.27
2019-04-28T21:58:33.350Z,8.67
2019-04-28T22:00:58.054Z,6.33
2019-04-28T22:03:26.852Z,12.50
2019-04-28T22:05:55.592Z,9.33
2019-04-28T22:08:24.312Z,9.23
2019-04-28T22:10:53.684Z,7.83
2019-04-28T22:13:22.393Z,8.67
2019-04-28T22:15:51.107Z,8.70
2019-04-28T22:18:19.827Z,8.03
2019-04-28T22:20:48.619Z,9.10
2019-04-28T22:23:19.079Z,9.37
2019-04-28T22:25:47.808Z,7.73
2019-04-28T22:28:16.587Z,7.47
2019-04-28T22:30:45.315Z,9.80
2019-04-28T22:33:14.033Z,9.63
2019-04-28T22:35:42.746Z,5.90
2019-04-28T22:38:11.469Z,8.53
2019-04-28T22:40:40.188Z,13.53
2019-04-28T22:43:08.915Z,10.13
2019-04-28T22:45:37.624Z,9.40
2019-04-28T22:48:08.024Z,10.80
2019-04-28T22:50:39.413Z,9.57
2019-04-28T22:53:08.127Z,8.07
2019-04-28T22:55:44.281Z,10.40
2019-04-28T22:58:33.063Z,10.47
2019-04-28T23:01:03.628Z,9.20
2019-04-28T23:03:49.424Z,10.87
2019-04-28T23:06:18.412Z,9.17
2019-04-28T23:08:47.124Z,8.30
2019-04-28T23:11:15.849Z,9.57
2019-04-28T23:13:44.967Z,10.17
2019-04-28T23:16:13.756Z,8.03
2019-04-28T23:19:03.393Z,14.50
2019-04-28T23:21:43.704Z,8.97
2019-04-28T23:24:12.498Z,13.07
2019-04-28T23:26:41.284Z,9.63
2019-04-28T23:29:10.017Z,13.80
2019-04-28T23:31:38.797Z,9.00
2019-04-28T23:34:07.526Z,14.37
2019-04-28T23:36:36.237Z,12.30
2019-04-28T23:39:07.204Z,17.90
2019-04-28T23:41:46.898Z,10.70
2019-04-28T23:44:15.686Z,11.97
2019-04-28T23:46:57.812Z,12.20
2019-04-28T23:49:30.305Z,9.10
2019-04-28T23:52:06.460Z,12.57
2019-04-28T23:54:36.790Z,13.97
2019-04-28T23:57:07.387Z,12.57
2019-04-28T23:59:36.183Z,11.80
